HESH 230700Z 02012KT CAVOK 31/19 Q1010 NOSIG
From batch tds/metars/production/2022/9/23/h07_m55_metars.cache.csv.gz
Observed at (13 days ago)
Identifier HESH
talk